Time;durP1;ratioP1;P1;durP2;ratioP2;P2;SDS_P1;SDS_P2;PMS_P1;PMS_P2;Temp;Humidity;BMP_temperature;BMP_pressure;BME280_temperature;BME280_humidity;BME280_pressure;Samples;Min_cycle;Max_cycle;Signal;HPM_P1;HPM_P2
2021/08/25 00:01:59;;;;;;;0.30;0.30;;;14.50;99.90;;;;;;4401083;32;20058;-74
2021/08/25 00:04:24;;;;;;;1.00;0.57;;;14.50;99.90;;;;;;4400217;32;20066;-74
2021/08/25 00:06:50;;;;;;;0.20;0.20;;;14.50;99.90;;;;;;4401724;32;20391;-75
2021/08/25 00:09:15;;;;;;;0.20;0.20;;;14.40;99.90;;;;;;4401641;32;20113;-74
2021/08/25 00:11:41;;;;;;;0.40;0.40;;;14.30;99.90;;;;;;4400138;32;20361;-74
2021/08/25 00:14:06;;;;;;;0.32;0.32;;;14.20;99.90;;;;;;4400227;32;20083;-73
2021/08/25 00:16:32;;;;;;;0.55;0.55;;;14.10;99.90;;;;;;4399748;32;20405;-74
2021/08/25 00:18:57;;;;;;;0.30;0.30;;;14.10;99.90;;;;;;4400393;32;20085;-74
2021/08/25 00:21:23;;;;;;;0.25;0.25;;;14.00;99.90;;;;;;4399849;32;20062;-73
2021/08/25 00:23:48;;;;;;;0.20;0.20;;;14.00;99.90;;;;;;4400159;32;20071;-73
2021/08/25 00:26:14;;;;;;;1.27;0.50;;;14.00;99.90;;;;;;4399779;32;20386;-74
2021/08/25 00:28:39;;;;;;;0.20;0.20;;;13.90;99.90;;;;;;4400137;32;20128;-74
2021/08/25 00:31:05;;;;;;;0.52;0.50;;;13.70;99.90;;;;;;4399364;32;20086;-74
2021/08/25 00:33:30;;;;;;;1.10;0.32;;;13.80;99.90;;;;;;4400965;32;20508;-74
2021/08/25 00:35:55;;;;;;;3.03;0.47;;;13.80;99.90;;;;;;4399726;32;20066;-74
2021/08/25 00:38:21;;;;;;;0.30;0.30;;;13.70;99.90;;;;;;4399722;32;20432;-75
2021/08/25 00:40:46;;;;;;;3.83;0.55;;;13.70;99.90;;;;;;4399575;32;20132;-74
2021/08/25 00:43:12;;;;;;;0.30;0.30;;;13.60;99.90;;;;;;4399978;32;20065;-74
2021/08/25 00:45:41;;;;;;;1.48;0.52;;;13.60;99.90;;;;;;4399443;32;20104;-74
2021/08/25 00:48:07;;;;;;;0.98;0.80;;;13.60;99.90;;;;;;4399612;32;20078;-74
2021/08/25 00:50:35;;;;;;;0.40;0.40;;;13.50;99.90;;;;;;4400362;32;20058;-75
2021/08/25 00:53:03;;;;;;;0.30;0.30;;;13.50;99.90;;;;;;4400088;32;20571;-74
2021/08/25 00:55:30;;;;;;;0.30;0.30;;;13.40;99.90;;;;;;4399641;32;20452;-74
2021/08/25 00:57:55;;;;;;;0.37;0.37;;;13.40;99.90;;;;;;4399719;32;20117;-75
2021/08/25 01:00:21;;;;;;;0.55;0.47;;;13.40;99.90;;;;;;4399027;32;20058;-73
2021/08/25 01:02:57;;;;;;;0.80;0.65;;;13.40;99.90;;;;;;4399080;32;20094;-74
2021/08/25 01:05:23;;;;;;;0.20;0.20;;;13.40;99.90;;;;;;4399740;32;20074;-74
2021/08/25 01:07:49;;;;;;;2.80;0.50;;;13.30;99.90;;;;;;4399956;32;20510;-74
2021/08/25 01:10:32;;;;;;;0.40;0.40;;;13.30;99.90;;;;;;4399822;32;20066;-74
2021/08/25 01:13:01;;;;;;;2.08;0.40;;;13.30;99.90;;;;;;4399831;32;20066;-73
2021/08/25 01:15:29;;;;;;;0.30;0.30;;;13.30;99.90;;;;;;4399042;32;20404;-75
2021/08/25 01:17:55;;;;;;;0.50;0.50;;;13.20;99.90;;;;;;4399545;32;20136;-74
2021/08/25 01:20:24;;;;;;;0.20;0.20;;;13.10;99.90;;;;;;4400296;32;20470;-75
2021/08/25 01:22:50;;;;;;;1.45;0.90;;;13.10;99.90;;;;;;4399552;32;20070;-74
2021/08/25 01:25:16;;;;;;;2.00;0.57;;;13.10;99.90;;;;;;4399304;32;20145;-74
2021/08/25 01:27:48;;;;;;;0.62;0.40;;;13.00;99.90;;;;;;4399731;32;20086;-73
2021/08/25 01:30:14;;;;;;;0.40;0.40;;;13.00;99.90;;;;;;4400204;32;20070;-73
2021/08/25 01:32:40;;;;;;;1.15;0.75;;;13.00;99.90;;;;;;4400085;32;20069;-74
2021/08/25 01:35:07;;;;;;;9.30;0.40;;;13.00;99.90;;;;;;4399180;32;20515;-74
2021/08/25 01:37:33;;;;;;;13.75;0.82;;;13.00;99.90;;;;;;4399408;32;20081;-74
2021/08/25 01:39:59;;;;;;;0.32;0.32;;;12.90;99.90;;;;;;4398907;32;20079;-74
2021/08/25 01:42:25;;;;;;;0.73;0.73;;;12.90;99.90;;;;;;4399216;32;20074;-74
2021/08/25 01:44:51;;;;;;;0.20;0.20;;;12.80;99.90;;;;;;4398226;32;20061;-74
2021/08/25 01:47:18;;;;;;;0.20;0.20;;;12.90;99.90;;;;;;4399077;32;20061;-74
2021/08/25 01:49:44;;;;;;;0.20;0.20;;;12.90;99.90;;;;;;4399469;32;20118;-74
2021/08/25 01:52:10;;;;;;;0.43;0.40;;;12.90;99.90;;;;;;4399028;32;20074;-74
2021/08/25 01:54:37;;;;;;;1.48;0.57;;;12.80;99.90;;;;;;4399380;32;20543;-74
2021/08/25 01:57:04;;;;;;;0.62;0.40;;;12.70;99.90;;;;;;4398938;32;20086;-73
2021/08/25 01:59:30;;;;;;;0.43;0.35;;;12.70;99.90;;;;;;4398758;32;20066;-73
2021/08/25 02:01:55;;;;;;;0.32;0.32;;;12.50;99.90;;;;;;4398546;32;20125;-74
2021/08/25 02:04:21;;;;;;;0.28;0.28;;;12.50;99.90;;;;;;4400078;32;20077;-74
2021/08/25 02:06:46;;;;;;;2.53;0.75;;;12.50;99.90;;;;;;4398930;32;20125;-74
2021/08/25 02:09:12;;;;;;;12.70;0.80;;;12.50;99.90;;;;;;4398524;32;20066;-73
2021/08/25 02:11:37;;;;;;;0.40;0.40;;;12.50;99.90;;;;;;4398930;32;20067;-74
2021/08/25 02:14:03;;;;;;;0.40;0.35;;;12.60;99.90;;;;;;4399129;32;20113;-73
2021/08/25 02:16:29;;;;;;;0.40;0.40;;;12.50;99.90;;;;;;4398887;32;20530;-75
2021/08/25 02:18:54;;;;;;;0.40;0.40;;;12.40;99.90;;;;;;4401336;32;20122;-74
2021/08/25 02:21:22;;;;;;;0.20;0.20;;;12.30;99.90;;;;;;4401542;32;20066;-73
2021/08/25 02:23:48;;;;;;;0.30;0.30;;;12.30;99.90;;;;;;4401402;32;20074;-73
2021/08/25 02:26:16;;;;;;;0.28;0.28;;;12.20;99.90;;;;;;4402122;32;20085;-74
2021/08/25 02:28:43;;;;;;;0.30;0.30;;;12.10;99.90;;;;;;4401614;32;20058;-73
2021/08/25 02:31:08;;;;;;;0.30;0.30;;;12.00;99.90;;;;;;4401234;32;20089;-74
2021/08/25 02:33:34;;;;;;;0.90;0.85;;;12.00;99.90;;;;;;4401561;32;20081;-74
2021/08/25 02:35:59;;;;;;;0.37;0.37;;;12.00;99.90;;;;;;4401231;32;20086;-74
2021/08/25 02:38:24;;;;;;;0.40;0.40;;;11.90;99.90;;;;;;4400963;32;20087;-74
2021/08/25 02:40:50;;;;;;;2.72;1.40;;;12.00;99.90;;;;;;4401703;32;20117;-74
2021/08/25 02:43:15;;;;;;;0.30;0.30;;;12.00;99.90;;;;;;4400813;32;20061;-74
2021/08/25 02:45:41;;;;;;;2.00;0.75;;;12.10;99.90;;;;;;4401726;32;20129;-74
2021/08/25 02:48:06;;;;;;;1.37;0.90;;;12.10;99.90;;;;;;4401333;32;20061;-74
2021/08/25 02:50:32;;;;;;;0.40;0.40;;;12.10;99.90;;;;;;4401389;32;20133;-74
2021/08/25 02:52:57;;;;;;;0.40;0.40;;;12.10;99.90;;;;;;4401096;32;20411;-74
2021/08/25 02:55:23;;;;;;;0.30;0.30;;;12.00;99.90;;;;;;4400945;32;20116;-74
2021/08/25 02:57:48;;;;;;;0.85;0.85;;;12.00;99.90;;;;;;4401145;32;20086;-74
2021/08/25 03:00:15;;;;;;;0.50;0.50;;;12.00;99.90;;;;;;4401357;32;20442;-74
2021/08/25 03:02:40;;;;;;;0.30;0.30;;;12.00;99.90;;;;;;4400662;32;20066;-74
2021/08/25 03:05:06;;;;;;;0.25;0.25;;;12.00;99.90;;;;;;4401000;32;20135;-74
2021/08/25 03:07:32;;;;;;;0.20;0.20;;;12.00;99.90;;;;;;4400904;32;20079;-74
2021/08/25 03:09:57;;;;;;;12.68;0.30;;;12.00;99.90;;;;;;4401120;32;20070;-74
2021/08/25 03:12:22;;;;;;;0.20;0.20;;;11.90;99.90;;;;;;4401037;32;20062;-74
2021/08/25 03:14:48;;;;;;;0.30;0.30;;;11.90;99.90;;;;;;4400122;32;20065;-74
2021/08/25 03:17:14;;;;;;;0.30;0.30;;;11.90;99.90;;;;;;4400822;32;20091;-74
2021/08/25 03:19:39;;;;;;;0.30;0.30;;;11.90;99.90;;;;;;4400858;32;20082;-74
2021/08/25 03:22:05;;;;;;;0.10;0.10;;;11.90;99.90;;;;;;4400784;32;20129;-74
2021/08/25 03:24:30;;;;;;;0.47;0.47;;;11.80;99.90;;;;;;4400460;32;20069;-73
2021/08/25 03:26:56;;;;;;;0.20;0.20;;;11.80;99.90;;;;;;4400890;32;20074;-74
2021/08/25 03:29:21;;;;;;;0.88;0.85;;;11.80;99.90;;;;;;4401521;32;20094;-74
2021/08/25 03:31:47;;;;;;;1.02;0.70;;;11.90;99.90;;;;;;4400446;32;20078;-74
2021/08/25 03:34:12;;;;;;;0.30;0.30;;;11.90;99.90;;;;;;4400204;32;20074;-75
2021/08/25 03:36:38;;;;;;;0.50;0.50;;;11.70;99.90;;;;;;4400618;32;20083;-74
2021/08/25 03:39:03;;;;;;;0.80;0.43;;;11.60;99.90;;;;;;4400384;32;20070;-74
2021/08/25 03:41:29;;;;;;;0.28;0.28;;;11.50;99.90;;;;;;4400862;32;20078;-74
2021/08/25 03:43:54;;;;;;;0.47;0.45;;;11.40;99.90;;;;;;4401281;32;20075;-74
2021/08/25 03:46:20;;;;;;;0.55;0.55;;;11.40;99.90;;;;;;4401021;32;20058;-74
2021/08/25 03:48:45;;;;;;;0.77;0.45;;;11.30;99.90;;;;;;4399948;32;20066;-74
2021/08/25 03:51:11;;;;;;;0.40;0.40;;;11.30;99.90;;;;;;4400517;32;20460;-74
2021/08/25 03:53:37;;;;;;;0.50;0.50;;;11.40;99.90;;;;;;4400069;32;20121;-74
2021/08/25 03:56:03;;;;;;;0.30;0.30;;;11.40;99.90;;;;;;4400641;32;20563;-74
2021/08/25 03:58:28;;;;;;;2.35;0.47;;;11.50;99.90;;;;;;4400811;32;20113;-74
2021/08/25 04:00:54;;;;;;;1.12;0.50;;;11.50;99.90;;;;;;4400518;32;20475;-74
2021/08/25 04:03:19;;;;;;;0.28;0.28;;;11.50;99.90;;;;;;4400982;32;20157;-74
2021/08/25 04:05:45;;;;;;;0.30;0.30;;;11.60;99.90;;;;;;4400944;32;20073;-74
2021/08/25 04:08:10;;;;;;;1.85;0.73;;;11.60;99.90;;;;;;4400053;32;20066;-73
2021/08/25 04:10:40;;;;;;;0.60;0.50;;;11.60;99.90;;;;;;4400525;32;20090;-74
2021/08/25 04:13:06;;;;;;;0.20;0.20;;;11.40;99.90;;;;;;4400434;32;20511;-73
2021/08/25 04:15:31;;;;;;;1.08;0.50;;;11.30;99.90;;;;;;4399881;32;20070;-73
2021/08/25 04:17:56;;;;;;;1.08;0.62;;;11.20;99.90;;;;;;4400099;32;20112;-74
2021/08/25 04:20:22;;;;;;;0.65;0.60;;;11.30;99.90;;;;;;4400464;32;20074;-74
2021/08/25 04:22:48;;;;;;;0.98;0.85;;;11.40;99.90;;;;;;4397147;32;20197;-74
2021/08/25 04:25:13;;;;;;;0.30;0.30;;;11.50;99.90;;;;;;4397638;32;20070;-74
2021/08/25 04:27:39;;;;;;;0.37;0.37;;;11.50;99.90;;;;;;4399618;32;20075;-74
2021/08/25 04:30:05;;;;;;;2.53;0.30;;;11.50;99.90;;;;;;4400308;32;20078;-74
2021/08/25 04:32:31;;;;;;;1.35;0.65;;;11.50;99.90;;;;;;4399539;32;20070;-75
2021/08/25 04:34:57;;;;;;;0.50;0.50;;;11.50;99.90;;;;;;4399775;32;20522;-74
2021/08/25 04:37:22;;;;;;;3.67;0.98;;;11.50;99.90;;;;;;4400136;32;20062;-74
2021/08/25 04:39:47;;;;;;;0.20;0.20;;;11.60;99.90;;;;;;4399466;32;20436;-74
2021/08/25 04:42:13;;;;;;;0.20;0.20;;;11.60;99.90;;;;;;4400110;32;20062;-74
2021/08/25 04:44:38;;;;;;;0.55;0.55;;;11.60;99.90;;;;;;4399448;32;20087;-74
2021/08/25 04:47:04;;;;;;;0.85;0.37;;;11.60;99.90;;;;;;4399446;32;20054;-74
2021/08/25 04:49:29;;;;;;;0.30;0.30;;;11.70;99.90;;;;;;4399730;32;20073;-73
2021/08/25 04:51:55;;;;;;;3.53;0.98;;;11.70;99.90;;;;;;4400067;32;20121;-73
2021/08/25 04:54:20;;;;;;;1.23;0.35;;;11.70;99.90;;;;;;4397069;32;20390;-73
2021/08/25 04:56:46;;;;;;;0.28;0.28;;;11.70;99.90;;;;;;4399585;32;20078;-74
2021/08/25 04:59:11;;;;;;;0.20;0.20;;;11.70;99.90;;;;;;4399006;32;20070;-73
2021/08/25 05:01:37;;;;;;;0.20;0.20;;;11.70;99.90;;;;;;4390184;32;20086;-73
2021/08/25 05:04:04;;;;;;;0.22;0.22;;;11.80;99.90;;;;;;4394895;32;20074;-74
2021/08/25 05:06:29;;;;;;;0.32;0.32;;;11.90;99.90;;;;;;4398916;32;20066;-73
2021/08/25 05:08:55;;;;;;;1.35;0.40;;;11.90;99.90;;;;;;4398374;32;20198;-74
2021/08/25 05:11:20;;;;;;;0.20;0.20;;;11.90;99.90;;;;;;4394159;32;20090;-74
2021/08/25 05:13:45;;;;;;;0.75;0.40;;;12.00;99.90;;;;;;4397516;32;20515;-74
2021/08/25 05:16:12;;;;;;;0.20;0.20;;;12.10;99.90;;;;;;4397116;32;20075;-73
2021/08/25 05:18:41;;;;;;;1.23;0.68;;;12.00;99.90;;;;;;4381430;32;20539;-75
2021/08/25 05:21:07;;;;;;;1.23;0.80;;;12.10;99.90;;;;;;4396744;32;20425;-73
2021/08/25 05:23:32;;;;;;;0.25;0.25;;;12.20;99.90;;;;;;4396862;32;20065;-74
2021/08/25 05:25:58;;;;;;;0.98;0.52;;;12.20;99.90;;;;;;4393686;32;20607;-74
2021/08/25 05:28:24;;;;;;;0.85;0.68;;;12.30;99.90;;;;;;4381585;32;20081;-74
2021/08/25 05:30:50;;;;;;;0.85;0.62;;;12.40;99.90;;;;;;4384916;32;20136;-74
2021/08/25 05:33:15;;;;;;;0.43;0.43;;;12.40;99.90;;;;;;4377395;32;20127;-74
2021/08/25 05:35:41;;;;;;;0.60;0.60;;;12.50;99.90;;;;;;4389350;32;20082;-74
2021/08/25 05:38:06;;;;;;;0.60;0.60;;;12.60;99.90;;;;;;4389745;32;20136;-74
2021/08/25 05:40:32;;;;;;;18.00;1.80;;;12.60;99.90;;;;;;4392660;32;20080;-73
2021/08/25 05:42:59;;;;;;;0.32;0.32;;;12.70;99.90;;;;;;4395497;32;20509;-74
2021/08/25 05:45:25;;;;;;;2.42;0.88;;;12.80;99.90;;;;;;4386087;32;20103;-74
2021/08/25 05:47:52;;;;;;;0.82;0.50;;;12.70;99.90;;;;;;4395625;32;20091;-75
2021/08/25 05:50:19;;;;;;;0.50;0.50;;;12.80;99.90;;;;;;4394151;32;20070;-75
2021/08/25 05:52:44;;;;;;;3.92;0.62;;;12.90;99.90;;;;;;4382896;32;20469;-75
2021/08/25 05:55:10;;;;;;;0.73;0.73;;;12.90;99.90;;;;;;4391331;32;20464;-74
2021/08/25 05:57:41;;;;;;;0.45;0.45;;;12.90;99.90;;;;;;4387432;32;20109;-73
2021/08/25 06:00:07;;;;;;;;;;;13.10;99.90;;;;;;4392602;32;20288;-73
2021/08/25 06:02:33;;;;;;;0.40;0.40;;;13.10;99.90;;;;;;4387531;32;19960;-72
2021/08/25 06:04:58;;;;;;;0.40;0.40;;;13.30;99.90;;;;;;4388380;32;20079;-73
2021/08/25 06:07:23;;;;;;;0.80;0.73;;;13.30;99.90;;;;;;4385790;32;20066;-72
2021/08/25 06:09:49;;;;;;;0.40;0.40;;;13.40;99.90;;;;;;4385868;32;20661;-72
2021/08/25 06:12:14;;;;;;;0.43;0.43;;;13.50;99.90;;;;;;4386112;32;20070;-73
2021/08/25 06:14:40;;;;;;;0.57;0.57;;;13.70;99.90;;;;;;4386451;32;20071;-73
2021/08/25 06:17:06;;;;;;;1.62;0.77;;;13.80;99.90;;;;;;4392199;32;20121;-74
2021/08/25 06:19:31;;;;;;;0.20;0.20;;;13.90;99.90;;;;;;4382621;32;20078;-74
2021/08/25 06:21:57;;;;;;;1.00;0.47;;;14.00;99.90;;;;;;4380824;32;96161;-74
2021/08/25 06:24:22;;;;;;;1.77;0.35;;;14.10;99.90;;;;;;4391054;32;20082;-73
2021/08/25 06:26:48;;;;;;;0.65;0.40;;;14.20;99.90;;;;;;4384023;32;20082;-73
2021/08/25 06:29:13;;;;;;;0.40;0.40;;;14.30;99.90;;;;;;4390596;32;20074;-73
2021/08/25 06:31:39;;;;;;;0.20;0.20;;;14.40;99.90;;;;;;4393061;32;20133;-74
2021/08/25 06:34:04;;;;;;;0.43;0.43;;;14.50;99.90;;;;;;4386227;32;20058;-73
2021/08/25 06:36:29;;;;;;;0.20;0.20;;;14.50;99.90;;;;;;4385625;32;20115;-73
2021/08/25 06:38:55;;;;;;;0.50;0.50;;;14.50;99.90;;;;;;4388872;32;20125;-73
2021/08/25 06:41:20;;;;;;;1.37;0.30;;;14.50;99.90;;;;;;4389144;32;20128;-74
2021/08/25 06:43:46;;;;;;;0.60;0.60;;;14.60;99.90;;;;;;4389223;32;20390;-73
2021/08/25 06:46:11;;;;;;;0.90;0.50;;;14.60;99.90;;;;;;4386704;32;20074;-73
2021/08/25 06:48:37;;;;;;;0.30;0.30;;;14.70;99.90;;;;;;4384887;32;20105;-73
2021/08/25 06:51:02;;;;;;;2.62;0.75;;;14.70;99.90;;;;;;4387872;32;20091;-74
2021/08/25 06:53:30;;;;;;;1.17;0.32;;;14.80;99.90;;;;;;4387856;32;20297;-74
2021/08/25 06:55:55;;;;;;;0.52;0.52;;;14.80;99.90;;;;;;4391250;32;20093;-74
2021/08/25 06:58:24;;;;;;;0.40;0.40;;;14.80;99.90;;;;;;4386698;32;20125;-74
2021/08/25 07:00:50;;;;;;;0.90;0.70;;;14.90;99.90;;;;;;4381209;32;20180;-73
2021/08/25 07:03:15;;;;;;;0.30;0.30;;;15.10;99.90;;;;;;4436354;27;20085;-64
2021/08/25 07:05:40;;;;;;;0.35;0.35;;;15.10;99.90;;;;;;4430186;32;20085;-64
2021/08/25 07:08:06;;;;;;;0.32;0.32;;;15.30;99.90;;;;;;4427319;32;20077;-66
2021/08/25 07:10:32;;;;;;;0.17;0.17;;;15.30;99.90;;;;;;4425192;32;20681;-63
2021/08/25 07:12:58;;;;;;;0.40;0.40;;;15.30;99.90;;;;;;4425516;32;20175;-64
2021/08/25 07:15:23;;;;;;;5.87;1.15;;;15.30;99.90;;;;;;4429040;32;20404;-65
2021/08/25 07:17:49;;;;;;;0.50;0.30;;;15.40;99.90;;;;;;4427764;32;20593;-65
2021/08/25 07:20:14;;;;;;;0.37;0.37;;;15.30;99.90;;;;;;4425103;32;20056;-65
2021/08/25 07:22:40;;;;;;;0.30;0.30;;;15.40;99.90;;;;;;4427514;32;20082;-65
2021/08/25 07:25:07;;;;;;;0.47;0.47;;;15.40;99.90;;;;;;4430537;32;20613;-65
2021/08/25 07:27:33;;;;;;;0.85;0.85;;;15.50;99.90;;;;;;4429420;32;20087;-65
2021/08/25 07:29:59;;;;;;;0.30;0.30;;;15.60;99.90;;;;;;4433503;32;20924;-65
2021/08/25 07:32:25;;;;;;;0.20;0.20;;;15.70;99.90;;;;;;4432857;32;20076;-65
2021/08/25 07:34:50;;;;;;;0.60;0.60;;;15.70;99.90;;;;;;4438282;32;20061;-65
2021/08/25 07:37:16;;;;;;;0.55;0.40;;;15.90;99.90;;;;;;4437097;32;20096;-65
2021/08/25 07:39:41;;;;;;;0.30;0.30;;;15.90;99.90;;;;;;4438928;32;20076;-65
2021/08/25 07:42:07;;;;;;;0.30;0.30;;;16.00;99.90;;;;;;4440745;32;20092;-65
2021/08/25 07:44:32;;;;;;;0.43;0.43;;;16.00;99.90;;;;;;4440817;32;20069;-65
2021/08/25 07:46:58;;;;;;;0.40;0.40;;;15.90;99.90;;;;;;4438254;32;20100;-65
2021/08/25 07:49:23;;;;;;;0.95;0.45;;;15.90;99.90;;;;;;4433555;32;20112;-66
2021/08/25 07:51:50;;;;;;;0.20;0.20;;;15.90;99.90;;;;;;4430007;32;20147;-65
2021/08/25 07:54:15;;;;;;;0.37;0.37;;;15.80;99.90;;;;;;4435257;32;20951;-65
2021/08/25 07:56:41;;;;;;;0.35;0.35;;;16.00;99.90;;;;;;4429642;32;20059;-65
2021/08/25 07:59:06;;;;;;;0.22;0.22;;;16.00;99.90;;;;;;4434273;32;20576;-65
2021/08/25 08:01:33;;;;;;;0.80;0.47;;;16.20;99.90;;;;;;4435866;32;20349;-65
2021/08/25 08:03:58;;;;;;;0.30;0.30;;;16.40;99.90;;;;;;4440056;32;20089;-65
2021/08/25 08:06:24;;;;;;;0.30;0.30;;;16.50;99.90;;;;;;4437796;32;20407;-66
2021/08/25 08:08:50;;;;;;;0.30;0.30;;;16.70;99.90;;;;;;4441469;32;20101;-65
2021/08/25 08:11:15;;;;;;;1.00;0.50;;;16.90;99.90;;;;;;4435248;32;20140;-66
2021/08/25 08:13:41;;;;;;;0.28;0.28;;;17.00;99.90;;;;;;4433529;32;20069;-66
2021/08/25 08:16:07;;;;;;;0.30;0.30;;;17.20;99.90;;;;;;4433901;32;20077;-65
2021/08/25 08:18:35;;;;;;;0.30;0.30;;;17.30;99.90;;;;;;4440660;32;20137;-66
2021/08/25 08:21:03;;;;;;;0.30;0.30;;;17.40;99.90;;;;;;4439691;32;20239;-66
2021/08/25 08:23:30;;;;;;;0.30;0.30;;;17.40;99.90;;;;;;4439404;32;20073;-66
2021/08/25 08:25:55;;;;;;;0.30;0.30;;;17.50;99.90;;;;;;4431638;32;20088;-64
2021/08/25 08:28:21;;;;;;;0.30;0.30;;;17.50;99.90;;;;;;4439761;32;20114;-65
2021/08/25 08:30:47;;;;;;;0.50;0.50;;;17.40;99.90;;;;;;4438331;32;20093;-66
2021/08/25 08:33:13;;;;;;;1.35;0.37;;;17.30;99.90;;;;;;4431176;32;20084;-66
2021/08/25 08:35:38;;;;;;;2.72;0.82;;;17.20;99.90;;;;;;4436460;32;20581;-67
2021/08/25 08:38:05;;;;;;;0.95;0.50;;;17.20;99.90;;;;;;4435915;32;20535;-66
2021/08/25 08:40:33;;;;;;;0.95;0.70;;;17.20;99.90;;;;;;4430902;32;20127;-65
2021/08/25 08:43:07;;;;;;;0.22;0.22;;;17.10;99.90;;;;;;4419669;32;20171;-67
2021/08/25 08:45:37;;;;;;;0.30;0.30;;;17.10;99.90;;;;;;4418106;32;20088;-68
2021/08/25 08:48:04;;;;;;;0.40;0.40;;;17.20;99.90;;;;;;4431039;32;20218;-67
2021/08/25 08:50:30;;;;;;;0.30;0.30;;;17.30;99.90;;;;;;4421345;32;20154;-67
2021/08/25 08:52:56;;;;;;;0.40;0.40;;;17.20;99.90;;;;;;4433112;32;20381;-66
2021/08/25 08:55:23;;;;;;;0.30;0.30;;;17.20;99.90;;;;;;4435342;32;20065;-67
2021/08/25 08:57:48;;;;;;;0.32;0.32;;;17.20;99.90;;;;;;4429451;32;20065;-68
2021/08/25 09:00:14;;;;;;;0.50;0.50;;;17.40;99.90;;;;;;4434543;32;20084;-68
2021/08/25 09:02:43;;;;;;;0.30;0.30;;;17.50;99.90;;;;;;4436040;32;20461;-66
2021/08/25 09:05:17;;;;;;;0.50;0.50;;;17.60;99.90;;;;;;4440248;32;20093;-67
2021/08/25 09:07:57;;;;;;;0.45;0.45;;;17.60;99.90;;;;;;4438860;32;20163;-67
2021/08/25 09:10:28;;;;;;;0.50;0.50;;;17.70;99.90;;;;;;4442898;32;20428;-66
2021/08/25 09:12:57;;;;;;;0.47;0.37;;;17.80;99.90;;;;;;4410965;32;20073;-67
2021/08/25 09:15:25;;;;;;;1.65;0.50;;;17.80;99.90;;;;;;4441405;32;20073;-66
2021/08/25 09:18:10;;;;;;;0.28;0.28;;;17.70;99.90;;;;;;4437464;32;20088;-67
2021/08/25 09:20:41;;;;;;;0.43;0.43;;;17.70;99.90;;;;;;4441489;32;20077;-67
2021/08/25 09:23:25;;;;;;;0.40;0.40;;;17.80;99.90;;;;;;4432515;32;20110;-67
2021/08/25 09:25:55;;;;;;;0.20;0.20;;;17.80;99.90;;;;;;4437493;32;20317;-68
2021/08/25 09:28:37;;;;;;;0.30;0.30;;;17.70;99.90;;;;;;4421422;32;20081;-67
2021/08/25 09:31:06;;;;;;;0.75;0.75;;;17.50;99.90;;;;;;4431594;32;20107;-68
2021/08/25 09:33:35;;;;;;;0.22;0.22;;;17.40;99.90;;;;;;4435129;32;20089;-69
2021/08/25 09:36:06;;;;;;;0.20;0.20;;;17.50;99.90;;;;;;4435228;32;20073;-68
2021/08/25 09:38:33;;;;;;;0.50;0.50;;;17.60;99.90;;;;;;4438140;32;20068;-68
2021/08/25 09:41:09;;;;;;;0.35;0.35;;;17.60;99.90;;;;;;4437487;32;20162;-68
2021/08/25 09:43:46;;;;;;;0.40;0.30;;;17.50;99.90;;;;;;4437030;32;20144;-68
2021/08/25 09:46:16;;;;;;;0.40;0.40;;;17.50;99.90;;;;;;4438986;32;20104;-68
2021/08/25 09:48:46;;;;;;;0.32;0.32;;;17.60;99.90;;;;;;4443306;32;20069;-68
2021/08/25 09:51:15;;;;;;;0.30;0.30;;;17.60;99.90;;;;;;4442090;32;20061;-68
2021/08/25 09:53:43;;;;;;;0.50;0.50;;;17.70;99.90;;;;;;4443960;32;20627;-67
2021/08/25 09:56:32;;;;;;;0.30;0.30;;;17.70;99.90;;;;;;4444408;32;20085;-68
2021/08/25 09:58:59;;;;;;;0.30;0.30;;;17.80;99.90;;;;;;4437778;32;20092;-68
2021/08/25 10:01:25;;;;;;;0.35;0.32;;;17.80;99.90;;;;;;4443164;32;20097;-68
2021/08/25 10:03:51;;;;;;;0.65;0.50;;;17.70;99.90;;;;;;4431590;32;20073;-68
2021/08/25 10:06:18;;;;;;;1.15;0.75;;;17.70;99.90;;;;;;4435941;32;20124;-67
2021/08/25 10:08:45;;;;;;;1.25;0.30;;;17.70;99.90;;;;;;4437103;32;20120;-68
2021/08/25 10:11:12;;;;;;;0.30;0.30;;;17.70;99.90;;;;;;4422224;32;20110;-68
2021/08/25 10:13:39;;;;;;;0.30;0.30;;;17.70;99.90;;;;;;4438175;32;20068;-68
2021/08/25 10:16:04;;;;;;;0.37;0.37;;;17.80;99.90;;;;;;4439483;32;20542;-67
2021/08/25 10:18:37;;;;;;;0.30;0.30;;;17.80;99.90;;;;;;4417786;32;20061;-68
2021/08/25 10:21:23;;;;;;;0.30;0.30;;;17.90;99.90;;;;;;4430776;32;20229;-69
2021/08/25 10:23:59;;;;;;;0.30;0.30;;;17.80;99.90;;;;;;4422193;32;20094;-69
2021/08/25 10:26:27;;;;;;;0.40;0.40;;;17.90;99.90;;;;;;4434293;32;20069;-71
2021/08/25 10:29:02;;;;;;;1.65;0.77;;;17.80;99.90;;;;;;4428730;32;20084;-67
2021/08/25 10:31:49;;;;;;;3.75;1.45;;;17.80;99.90;;;;;;4429172;32;20081;-67
2021/08/25 10:34:21;;;;;;;0.50;0.50;;;17.80;99.90;;;;;;4414050;32;20098;-70
2021/08/25 10:36:47;;;;;;;0.30;0.30;;;17.80;99.90;;;;;;4429457;32;20076;-69
2021/08/25 10:39:33;;;;;;;0.30;0.30;;;17.70;99.90;;;;;;4432349;32;20136;-69
2021/08/25 10:41:59;;;;;;;0.37;0.37;;;17.60;99.90;;;;;;4427599;32;20395;-68
2021/08/25 10:44:45;;;;;;;0.20;0.20;;;17.70;99.90;;;;;;4439014;32;20101;-69
2021/08/25 10:47:13;;;;;;;0.40;0.40;;;17.70;99.90;;;;;;4422957;32;20593;-68
2021/08/25 10:49:41;;;;;;;0.57;0.57;;;17.70;99.90;;;;;;4423128;32;20601;-69
2021/08/25 10:52:18;;;;;;;0.35;0.35;;;17.80;99.90;;;;;;4429238;32;20188;-69
2021/08/25 10:54:48;;;;;;;0.30;0.30;;;17.80;99.90;;;;;;4427342;32;20447;-70
2021/08/25 10:57:16;;;;;;;1.00;0.40;;;17.90;99.90;;;;;;4427916;32;20106;-67
2021/08/25 10:59:42;;;;;;;0.32;0.32;;;18.00;99.90;;;;;;4428677;32;20088;-70
2021/08/25 11:02:08;;;;;;;0.37;0.37;;;18.00;99.90;;;;;;4430029;32;20131;-67
2021/08/25 11:04:33;;;;;;;0.28;0.28;;;18.00;99.90;;;;;;4427567;32;20116;-69
2021/08/25 11:07:02;;;;;;;0.90;0.82;;;18.10;99.90;;;;;;4432465;32;20494;-69
2021/08/25 11:09:36;;;;;;;0.22;0.22;;;18.10;99.90;;;;;;4432765;32;20085;-69
2021/08/25 11:12:08;;;;;;;0.40;0.40;;;18.20;99.90;;;;;;4433712;32;20085;-69
2021/08/25 11:14:53;;;;;;;0.47;0.47;;;18.30;99.90;;;;;;4433668;32;20077;-69
2021/08/25 11:17:27;;;;;;;0.40;0.40;;;18.30;99.90;;;;;;4437571;32;20081;-69
2021/08/25 11:19:55;;;;;;;0.28;0.28;;;18.50;99.90;;;;;;4436801;32;20608;-69
2021/08/25 11:22:29;;;;;;;0.52;0.45;;;18.80;99.90;;;;;;4435768;32;20072;-69
2021/08/25 11:24:58;;;;;;;0.60;0.60;;;19.30;99.90;;;;;;4428749;32;20097;-69
2021/08/25 11:27:36;;;;;;;0.30;0.30;;;19.70;99.90;;;;;;4433784;32;20076;-70
2021/08/25 11:30:08;;;;;;;0.98;0.60;;;20.40;99.90;;;;;;4434550;32;20065;-69
2021/08/25 11:32:36;;;;;;;0.50;0.35;;;21.10;99.90;;;;;;4434280;32;20084;-69
2021/08/25 11:35:02;;;;;;;0.30;0.30;;;21.20;99.90;;;;;;4430889;32;20498;-69
2021/08/25 11:37:28;;;;;;;1.58;0.75;;;21.40;99.90;;;;;;4436432;32;20081;-69
2021/08/25 11:40:04;;;;;;;0.20;0.20;;;21.30;99.20;;;;;;4431587;32;20081;-69
2021/08/25 11:42:32;;;;;;;0.43;0.32;;;21.50;98.90;;;;;;4433503;32;20069;-69
2021/08/25 11:44:58;;;;;;;0.20;0.20;;;21.90;98.20;;;;;;4308920;32;20582;-68
2021/08/25 11:47:25;;;;;;;0.28;0.28;;;22.10;97.80;;;;;;4386102;32;20106;-69
2021/08/25 11:49:54;;;;;;;0.40;0.37;;;22.40;97.50;;;;;;4374353;32;20054;-70
2021/08/25 11:52:30;;;;;;;0.50;0.50;;;22.70;97.50;;;;;;4392900;32;20069;-69
2021/08/25 11:54:59;;;;;;;0.20;0.20;;;22.70;97.40;;;;;;4362223;32;20070;-69
2021/08/25 11:57:39;;;;;;;0.30;0.30;;;23.10;96.80;;;;;;4392656;32;20417;-68
2021/08/25 12:00:05;;;;;;;0.32;0.32;;;23.50;96.30;;;;;;4385453;32;20082;-68
2021/08/25 12:02:48;;;;;;;0.45;0.45;;;23.60;95.40;;;;;;4394059;32;20089;-68
2021/08/25 12:05:24;;;;;;;0.30;0.30;;;23.30;95.90;;;;;;4392020;32;20398;-68
2021/08/25 12:08:11;;;;;;;0.57;0.43;;;22.90;96.70;;;;;;4397206;32;20058;-68
2021/08/25 12:10:40;;;;;;;0.22;0.22;;;22.50;97.40;;;;;;4382287;32;20074;-68
2021/08/25 12:13:07;;;;;;;1.17;0.63;;;22.80;97.00;;;;;;4398154;32;20086;-68
2021/08/25 12:15:51;;;;;;;0.13;0.13;;;23.20;96.30;;;;;;4391299;32;20070;-68
2021/08/25 12:18:19;;;;;;;3.50;1.45;;;23.80;95.60;;;;;;4396909;32;20253;-68
2021/08/25 12:20:48;;;;;;;0.05;0.05;;;24.30;94.90;;;;;;4388267;32;20528;-66
2021/08/25 12:23:16;;;;;;;3.40;0.85;;;24.90;94.30;;;;;;4398239;32;20327;-66
2021/08/25 12:25:45;;;;;;;0.10;0.10;;;25.30;93.90;;;;;;4383248;32;20094;-67
2021/08/25 12:28:15;;;;;;;0.10;0.10;;;25.60;93.40;;;;;;4378888;32;20584;-66
2021/08/25 12:30:43;;;;;;;0.47;0.30;;;25.30;93.10;;;;;;4386779;32;20365;-66
2021/08/25 12:33:10;;;;;;;0.17;0.17;;;25.10;93.30;;;;;;4395496;32;20066;-67
2021/08/25 12:35:38;;;;;;;1.92;0.40;;;24.60;94.00;;;;;;4374341;32;20067;-66
2021/08/25 12:38:04;;;;;;;0.35;0.35;;;24.30;94.30;;;;;;4381324;32;20121;-67
2021/08/25 12:40:32;;;;;;;0.10;0.10;;;23.60;94.50;;;;;;4375707;32;20070;-66
2021/08/25 12:42:58;;;;;;;1.33;0.47;;;23.10;95.90;;;;;;4397363;32;20058;-67
2021/08/25 12:45:25;;;;;;;0.37;0.37;;;22.80;96.30;;;;;;4391053;32;20067;-67
2021/08/25 12:47:53;;;;;;;0.17;0.17;;;22.50;96.30;;;;;;4394163;32;20122;-68
2021/08/25 12:50:21;;;;;;;0.55;0.45;;;22.40;96.90;;;;;;4394385;32;20504;-67